Time;durP1;ratioP1;P1;durP2;ratioP2;P2;SDS_P1;SDS_P2;PMS_P1;PMS_P2;Temp;Humidity;BMP_temperature;BMP_pressure;BME280_temperature;BME280_humidity;BME280_pressure;Samples;Min_cycle;Max_cycle;Signal;HPM_P1;HPM_P2
2023/05/17 00:01:50;;;;;;;4.32;1.80;;;17.20;99.90;;;;;;5115350;28;20055;-49
2023/05/17 00:04:16;;;;;;;3.35;1.90;;;17.20;99.90;;;;;;5111363;28;20108;-49
2023/05/17 00:06:42;;;;;;;3.60;1.38;;;17.30;99.90;;;;;;5114343;28;20024;-50
2023/05/17 00:09:08;;;;;;;3.55;1.83;;;17.40;99.90;;;;;;5114254;28;20025;-50
2023/05/17 00:11:34;;;;;;;5.38;1.85;;;17.40;99.90;;;;;;5113921;28;20031;-51
2023/05/17 00:14:00;;;;;;;1.98;1.40;;;17.50;99.90;;;;;;5113270;28;20024;-52
2023/05/17 00:16:26;;;;;;;2.53;1.60;;;17.50;99.90;;;;;;5045636;28;20044;-50
2023/05/17 00:18:52;;;;;;;4.35;1.55;;;;;;;;;;5114132;28;20041;-50
2023/05/17 00:21:18;;;;;;;3.30;2.03;;;;;;;;;;5063723;28;20028;-50
2023/05/17 00:23:44;;;;;;;2.15;1.90;;;17.60;99.90;;;;;;5075532;28;20035;-51
2023/05/17 00:26:10;;;;;;;2.55;1.60;;;17.50;99.90;;;;;;5037303;28;20070;-52
2023/05/17 00:28:36;;;;;;;2.63;1.73;;;17.70;99.90;;;;;;5031148;28;20402;-51
2023/05/17 00:31:01;;;;;;;4.97;1.80;;;17.60;99.90;;;;;;5111692;28;20027;-50
2023/05/17 00:33:27;;;;;;;3.40;2.10;;;17.60;99.90;;;;;;5060990;28;20078;-52
2023/05/17 00:35:53;;;;;;;4.88;1.63;;;17.50;99.90;;;;;;5112060;28;20028;-50
2023/05/17 00:38:18;;;;;;;3.08;1.75;;;17.50;99.90;;;;;;5055394;28;20040;-50
2023/05/17 00:40:44;;;;;;;3.35;2.30;;;17.50;99.90;;;;;;5115826;28;20027;-53
2023/05/17 00:43:10;;;;;;;3.47;1.90;;;17.50;99.90;;;;;;5115041;28;20020;-51
2023/05/17 00:45:36;;;;;;;7.78;3.35;;;17.50;99.90;;;;;;5084215;28;20039;-52
2023/05/17 00:48:02;;;;;;;3.45;2.42;;;;;;;;;;5113945;28;20039;-52
2023/05/17 00:50:28;;;;;;;5.03;2.67;;;17.40;99.90;;;;;;5118552;27;20387;-52
2023/05/17 00:52:54;;;;;;;7.20;2.58;;;17.40;99.90;;;;;;5117689;27;20031;-49
2023/05/17 00:55:20;;;;;;;4.47;2.90;;;17.20;99.90;;;;;;5115711;27;20092;-50
2023/05/17 00:57:46;;;;;;;3.38;2.20;;;17.10;99.90;;;;;;5085684;27;20039;-49
2023/05/17 01:00:12;;;;;;;4.50;2.22;;;17.00;99.90;;;;;;5063025;28;20536;-50
2023/05/17 01:02:38;;;;;;;3.35;2.08;;;17.10;99.90;;;;;;5116816;27;20032;-51
2023/05/17 01:05:04;;;;;;;4.80;2.33;;;17.20;99.90;;;;;;5075784;28;20048;-50
2023/05/17 01:07:30;;;;;;;2.80;2.22;;;17.30;99.90;;;;;;5068566;28;20156;-52
2023/05/17 01:09:57;;;;;;;4.85;1.63;;;17.40;99.90;;;;;;5079080;27;20534;-49
2023/05/17 01:12:29;;;;;;;4.97;2.67;;;;;;;;;;5116927;27;20051;-51
2023/05/17 01:15:07;;;;;;;4.10;2.10;;;16.80;99.90;;;;;;5115905;27;20417;-49
2023/05/17 01:17:59;;;;;;;1.27;1.05;;;16.60;99.90;;;;;;5120179;27;20191;-52
2023/05/17 01:20:25;;;;;;;1.83;1.40;;;16.60;99.90;;;;;;5070442;28;20084;-49
2023/05/17 01:23:17;;;;;;;4.32;1.50;;;16.60;99.90;;;;;;5117396;27;20496;-49
2023/05/17 01:25:59;;;;;;;3.45;1.60;;;16.70;99.90;;;;;;5056026;28;20424;-50
2023/05/17 01:28:26;;;;;;;1.98;1.38;;;16.70;99.90;;;;;;5008376;28;20036;-51
2023/05/17 01:30:55;;;;;;;5.68;1.83;;;16.70;99.90;;;;;;5115479;27;20027;-50
2023/05/17 01:33:21;;;;;;;2.45;1.65;;;16.60;99.90;;;;;;5115965;27;20047;-51
2023/05/17 01:35:47;;;;;;;2.40;1.65;;;16.50;99.90;;;;;;5116213;27;20163;-49
2023/05/17 01:38:13;;;;;;;5.15;2.15;;;;;;;;;;5094682;28;20071;-51
2023/05/17 01:40:44;;;;;;;2.58;1.73;;;;;;;;;;5116662;27;20110;-51
2023/05/17 01:43:21;;;;;;;4.18;1.67;;;16.30;99.90;;;;;;5082331;27;20053;-50
2023/05/17 01:45:59;;;;;;;1.85;1.40;;;16.20;99.90;;;;;;5114137;27;20069;-50
2023/05/17 01:48:40;;;;;;;2.10;1.42;;;16.30;99.90;;;;;;5115222;27;20029;-50
2023/05/17 01:51:10;;;;;;;2.40;1.13;;;16.30;99.90;;;;;;5119080;27;20042;-51
2023/05/17 01:53:49;;;;;;;3.78;1.50;;;16.20;99.90;;;;;;5119916;27;20450;-52
2023/05/17 01:56:32;;;;;;;2.20;1.40;;;16.30;99.90;;;;;;5117094;27;20396;-51
2023/05/17 01:59:01;;;;;;;1.75;1.30;;;16.30;99.90;;;;;;5116513;27;20391;-50
2023/05/17 02:01:29;;;;;;;7.20;1.70;;;16.40;99.90;;;;;;5069230;27;20124;-50
2023/05/17 02:03:55;;;;;;;7.47;1.80;;;16.40;99.90;;;;;;5114810;27;20066;-49
2023/05/17 02:06:20;;;;;;;2.75;1.58;;;16.50;99.90;;;;;;5115049;27;20368;-51
2023/05/17 02:08:46;;;;;;;1.85;1.30;;;16.40;99.90;;;;;;5077344;27;20092;-49
2023/05/17 02:11:12;;;;;;;4.07;1.35;;;16.40;99.90;;;;;;5077753;27;20036;-50
2023/05/17 02:13:37;;;;;;;3.05;2.20;;;16.30;99.90;;;;;;5052623;28;20368;-51
2023/05/17 02:16:03;;;;;;;6.85;6.03;;;16.20;99.90;;;;;;5062725;27;20047;-50
2023/05/17 02:18:31;;;;;;;9.60;8.63;;;16.30;99.90;;;;;;5117225;27;20089;-50
2023/05/17 02:20:57;;;;;;;5.93;5.30;;;16.40;99.90;;;;;;5116087;27;20478;-49
2023/05/17 02:23:23;;;;;;;7.90;7.10;;;16.40;99.90;;;;;;5080479;28;20035;-52
2023/05/17 02:25:49;;;;;;;4.93;4.43;;;16.50;99.90;;;;;;5111849;27;20085;-51
2023/05/17 02:28:15;;;;;;;8.95;8.02;;;16.50;99.90;;;;;;5114221;27;20428;-49
2023/05/17 02:30:41;;;;;;;11.95;5.40;;;16.60;99.90;;;;;;5114536;27;20062;-52
2023/05/17 02:33:07;;;;;;;4.38;3.22;;;16.60;99.90;;;;;;5117026;27;20047;-49
2023/05/17 02:35:33;;;;;;;7.18;4.18;;;16.60;99.90;;;;;;5060149;28;20035;-50
2023/05/17 02:37:59;;;;;;;3.38;1.95;;;16.60;99.90;;;;;;5117287;27;20035;-51
2023/05/17 02:40:25;;;;;;;3.33;1.40;;;16.50;99.90;;;;;;5114195;27;20020;-51
2023/05/17 02:42:50;;;;;;;1.48;1.10;;;16.40;99.90;;;;;;5113819;27;20043;-49
2023/05/17 02:45:17;;;;;;;1.95;1.40;;;16.20;99.90;;;;;;5113248;27;20035;-48
2023/05/17 02:47:42;;;;;;;2.78;1.25;;;16.20;99.90;;;;;;5056999;28;20163;-51
2023/05/17 02:50:09;;;;;;;4.80;3.67;;;16.40;99.90;;;;;;5053588;28;20044;-51
2023/05/17 02:52:34;;;;;;;2.75;1.77;;;16.40;99.90;;;;;;5037405;28;20032;-50
2023/05/17 02:55:00;;;;;;;2.22;1.45;;;16.50;99.90;;;;;;5053063;28;20037;-50
2023/05/17 02:57:26;;;;;;;1.80;1.10;;;16.40;99.90;;;;;;5033585;28;20036;-49
2023/05/17 02:59:52;;;;;;;3.45;1.58;;;16.40;99.90;;;;;;5057935;28;20025;-49
2023/05/17 03:02:18;;;;;;;2.55;1.38;;;16.50;99.90;;;;;;5034488;28;20115;-49
2023/05/17 03:04:43;;;;;;;3.60;1.40;;;16.50;99.90;;;;;;5053263;28;20077;-51
2023/05/17 03:07:10;;;;;;;3.03;1.50;;;16.50;99.90;;;;;;5049308;28;20163;-50
2023/05/17 03:09:36;;;;;;;2.50;1.30;;;16.60;99.90;;;;;;5023256;28;20547;-51
2023/05/17 03:12:02;;;;;;;1.30;1.20;;;16.60;99.90;;;;;;5053662;28;20064;-49
2023/05/17 03:14:28;;;;;;;3.40;1.33;;;16.70;99.90;;;;;;5020064;28;20040;-51
2023/05/17 03:16:53;;;;;;;3.70;1.45;;;16.70;99.90;;;;;;5054590;28;20017;-51
2023/05/17 03:19:19;;;;;;;1.45;1.20;;;16.60;99.90;;;;;;5016904;28;20429;-50
2023/05/17 03:21:45;;;;;;;4.68;1.50;;;16.50;99.90;;;;;;5073853;28;20020;-50
2023/05/17 03:24:11;;;;;;;6.88;1.23;;;16.30;99.90;;;;;;5071367;28;20028;-49
2023/05/17 03:26:36;;;;;;;2.30;1.30;;;16.10;99.90;;;;;;5075865;28;20064;-51
2023/05/17 03:29:02;;;;;;;2.95;1.15;;;15.80;99.90;;;;;;5071443;28;20136;-50
2023/05/17 03:31:28;;;;;;;1.65;1.13;;;15.70;99.90;;;;;;5074882;28;20029;-53
2023/05/17 03:33:54;;;;;;;3.33;1.17;;;;;;;;;;5071148;28;20078;-51
2023/05/17 03:36:20;;;;;;;2.05;1.15;;;;;;;;;;5075266;28;20024;-52
2023/05/17 03:38:46;;;;;;;2.10;1.17;;;;;;;;;;5053962;28;20047;-50
2023/05/17 03:41:13;;;;;;;2.78;1.40;;;;;;;;;;5056398;28;20354;-51
2023/05/17 03:43:39;;;;;;;4.20;1.30;;;;;;;;;;5075293;28;20028;-49
2023/05/17 03:46:05;;;;;;;2.92;1.20;;;;;;;;;;5054780;28;20080;-50
2023/05/17 03:48:31;;;;;;;2.10;1.10;;;;;;;;;;5037274;28;20047;-52
2023/05/17 03:50:57;;;;;;;2.08;1.35;;;;;;;;;;5076744;28;20036;-51
2023/05/17 03:53:23;;;;;;;3.15;1.38;;;;;;;;;;5057320;28;20402;-52
2023/05/17 03:55:49;;;;;;;1.08;0.93;;;;;;;;;;5076372;28;20536;-50
2023/05/17 03:58:15;;;;;;;2.38;1.42;;;;;;;;;;5072428;28;20032;-50
2023/05/17 04:00:42;;;;;;;3.22;1.42;;;;;;;;;;5071875;28;20028;-51
2023/05/17 04:03:08;;;;;;;2.75;1.13;;;;;;;;;;5089057;28;20060;-51
2023/05/17 04:05:33;;;;;;;1.90;1.10;;;15.10;99.90;;;;;;5072303;28;20052;-51
2023/05/17 04:08:00;;;;;;;2.70;1.40;;;;;;;;;;5073291;28;20033;-49
2023/05/17 04:10:26;;;;;;;2.25;1.50;;;;;;;;;;5071128;28;20072;-50
2023/05/17 04:12:52;;;;;;;5.95;1.30;;;;;;;;;;5052630;28;20052;-51
2023/05/17 04:15:18;;;;;;;2.95;0.80;;;;;;;;;;5089408;28;20121;-50
2023/05/17 04:17:44;;;;;;;2.88;0.95;;;;;;;;;;5111824;28;20028;-50
2023/05/17 04:20:11;;;;;;;3.25;1.50;;;15.10;99.90;;;;;;5113001;28;20114;-50
2023/05/17 04:22:36;;;;;;;2.83;0.80;;;15.20;99.90;;;;;;5061914;27;20031;-51
2023/05/17 04:25:02;;;;;;;1.00;0.90;;;15.30;99.90;;;;;;5063951;28;20059;-51
2023/05/17 04:27:28;;;;;;;2.90;1.10;;;;;;;;;;5119154;27;20029;-52
2023/05/17 04:29:55;;;;;;;1.30;1.08;;;;;;;;;;5114549;28;20027;-52
2023/05/17 04:32:21;;;;;;;6.30;1.50;;;;;;;;;;5081817;28;20028;-52
2023/05/17 04:34:47;;;;;;;2.05;0.95;;;15.40;99.90;;;;;;5115434;28;20033;-53
2023/05/17 04:37:13;;;;;;;4.40;1.13;;;15.50;99.90;;;;;;5114624;27;20536;-51
2023/05/17 04:39:39;;;;;;;5.35;1.17;;;15.40;99.90;;;;;;5114472;27;20042;-51
2023/05/17 04:42:05;;;;;;;1.90;1.17;;;15.40;99.90;;;;;;5118996;27;20548;-51
2023/05/17 04:44:31;;;;;;;2.13;1.25;;;15.40;99.90;;;;;;5115087;27;20034;-50
2023/05/17 04:46:56;;;;;;;2.40;1.45;;;15.60;99.90;;;;;;5063969;28;20040;-52
2023/05/17 04:49:23;;;;;;;1.23;1.00;;;15.60;99.90;;;;;;5015021;27;20407;-50
2023/05/17 04:51:49;;;;;;;7.85;3.38;;;15.60;99.90;;;;;;5118951;27;20058;-52
2023/05/17 04:54:15;;;;;;;3.70;2.55;;;15.80;99.90;;;;;;5116052;27;20717;-50
2023/05/17 04:56:41;;;;;;;2.30;1.55;;;;;;;;;;5121621;27;20027;-52
2023/05/17 04:59:07;;;;;;;2.42;1.45;;;;;;;;;;5115753;27;20031;-52
2023/05/17 05:01:34;;;;;;;3.97;1.48;;;;;;;;;;5115081;28;20020;-51
2023/05/17 05:04:05;;;;;;;3.38;1.10;;;;;;;;;;5118109;27;20083;-52
2023/05/17 05:06:32;;;;;;;3.33;1.60;;;;;;;;;;5084483;27;20098;-51
2023/05/17 05:08:58;;;;;;;3.75;1.42;;;;;;;;;;5117011;27;20031;-56
2023/05/17 05:11:24;;;;;;;1.67;1.38;;;;;;;;;;5115094;27;20042;-51
2023/05/17 05:13:50;;;;;;;3.10;1.10;;;;;;;;;;5115930;27;20027;-54
2023/05/17 05:16:16;;;;;;;2.20;1.00;;;;;;;;;;5112650;27;20139;-53
2023/05/17 05:18:42;;;;;;;1.65;1.10;;;;;;;;;;5065384;27;20042;-51
2023/05/17 05:21:09;;;;;;;2.22;1.60;;;;;;;;;;5115154;28;20023;-53
2023/05/17 05:23:35;;;;;;;1.80;1.23;;;;;;;;;;5115991;27;20027;-55
2023/05/17 05:26:01;;;;;;;3.05;1.25;;;;;;;;;;5116452;27;20144;-52
2023/05/17 05:28:27;;;;;;;1.90;1.23;;;;;;;;;;5121359;27;20042;-52
2023/05/17 05:30:58;;;;;;;4.78;1.27;;;;;;;;;;5076617;28;20040;-52
2023/05/17 05:33:23;;;;;;;1.42;1.10;;;17.40;99.90;;;;;;5114398;28;20480;-53
2023/05/17 05:35:49;;;;;;;1.77;1.00;;;17.10;99.90;;;;;;5095643;27;20050;-55
2023/05/17 05:38:15;;;;;;;1.48;1.13;;;17.10;99.90;;;;;;5116176;27;20458;-55
2023/05/17 05:40:41;;;;;;;2.38;1.27;;;17.20;99.90;;;;;;5114192;27;20035;-53
2023/05/17 05:43:07;;;;;;;5.20;1.20;;;17.40;99.90;;;;;;5115348;28;20031;-57
2023/05/17 05:45:32;;;;;;;2.78;1.42;;;17.40;99.90;;;;;;5114909;27;20159;-50
2023/05/17 05:47:58;;;;;;;4.97;1.10;;;17.50;99.90;;;;;;5116071;27;20036;-49
2023/05/17 05:50:24;;;;;;;3.10;1.70;;;17.40;99.90;;;;;;5061558;28;20074;-53
2023/05/17 05:52:50;;;;;;;1.38;0.77;;;17.50;99.90;;;;;;5116807;27;20164;-51
2023/05/17 05:55:15;;;;;;;2.13;1.00;;;17.60;99.90;;;;;;5115965;27;20035;-55
2023/05/17 05:57:41;;;;;;;1.60;0.95;;;17.70;99.90;;;;;;5115799;27;20032;-50
2023/05/17 06:00:07;;;;;;;6.25;1.25;;;17.70;99.90;;;;;;5114984;27;20032;-52
2023/05/17 06:02:33;;;;;;;2.55;1.02;;;17.80;99.90;;;;;;5064962;27;20058;-56
2023/05/17 06:04:59;;;;;;;1.95;1.48;;;17.60;99.90;;;;;;5119034;27;20466;-55
2023/05/17 06:07:25;;;;;;;3.92;0.80;;;17.50;99.90;;;;;;5093935;28;20114;-53
2023/05/17 06:09:50;;;;;;;0.95;0.73;;;17.70;99.90;;;;;;5117669;27;20027;-56
2023/05/17 06:12:16;;;;;;;3.25;1.08;;;;;;;;;;5114858;27;20031;-52
2023/05/17 06:14:42;;;;;;;6.88;1.35;;;18.10;99.90;;;;;;5117116;27;20030;-52
2023/05/17 06:17:08;;;;;;;3.28;0.73;;;18.50;99.90;;;;;;5114189;27;20123;-54
2023/05/17 06:19:34;;;;;;;1.15;0.70;;;;;;;;;;5061612;27;20031;-50
2023/05/17 06:22:00;;;;;;;1.70;0.90;;;18.30;99.90;;;;;;5114865;27;20032;-50
2023/05/17 06:24:25;;;;;;;3.50;1.20;;;18.50;99.90;;;;;;5118732;27;20364;-51
2023/05/17 06:26:51;;;;;;;0.95;0.82;;;18.40;99.90;;;;;;5066445;28;20044;-48
2023/05/17 06:29:17;;;;;;;1.42;0.75;;;18.50;99.90;;;;;;5119249;27;20050;-52
2023/05/17 06:31:42;;;;;;;1.00;0.70;;;18.70;99.90;;;;;;5115036;27;20082;-51
2023/05/17 06:34:08;;;;;;;1.58;0.98;;;18.70;99.90;;;;;;5092218;28;20054;-51
2023/05/17 06:36:34;;;;;;;1.52;1.00;;;18.70;99.90;;;;;;5114710;27;20030;-49
2023/05/17 06:39:00;;;;;;;2.30;0.90;;;18.90;99.90;;;;;;5119877;27;20041;-50
2023/05/17 06:41:25;;;;;;;2.47;1.33;;;19.10;99.90;;;;;;5114006;27;20027;-50
2023/05/17 06:43:51;;;;;;;2.72;0.77;;;19.00;99.90;;;;;;5113095;27;21134;-51
2023/05/17 06:46:17;;;;;;;1.15;0.70;;;;;;;;;;5115381;27;20040;-51
2023/05/17 06:48:43;;;;;;;2.72;1.15;;;;;;;;;;5077256;27;20079;-50
2023/05/17 06:51:09;;;;;;;3.75;1.00;;;;;;;;;;5115195;27;20122;-52
2023/05/17 06:53:35;;;;;;;3.33;1.10;;;19.60;99.90;;;;;;5114801;27;20027;-51
2023/05/17 06:56:01;;;;;;;2.25;1.10;;;;;;;;;;5115665;27;20027;-52
2023/05/17 06:58:27;;;;;;;5.10;1.48;;;;;;;;;;5112996;28;20035;-51
2023/05/17 07:00:53;;;;;;;1.30;0.85;;;;;;;;;;5118095;27;20482;-51
2023/05/17 07:03:19;;;;;;;4.28;1.10;;;;;;;;;;5118472;27;20043;-51
2023/05/17 07:05:45;;;;;;;2.40;1.00;;;19.90;99.90;;;;;;5032935;28;20097;-53
2023/05/17 07:08:11;;;;;;;1.05;0.90;;;20.10;99.90;;;;;;5114980;27;20474;-50
2023/05/17 07:10:36;;;;;;;2.97;0.88;;;20.20;99.90;;;;;;5116362;27;20032;-51
2023/05/17 07:13:02;;;;;;;3.95;1.20;;;;;;;;;;5083300;28;20483;-51
2023/05/17 07:15:29;;;;;;;6.03;1.50;;;;;;;;;;5061761;28;20043;-51
2023/05/17 07:17:54;;;;;;;2.53;1.08;;;20.90;99.90;;;;;;5077870;27;20035;-51
2023/05/17 07:20:20;;;;;;;4.55;0.80;;;21.00;99.90;;;;;;5114638;27;20485;-52
2023/05/17 07:22:47;;;;;;;4.38;1.13;;;20.80;99.90;;;;;;5113428;27;20031;-50
2023/05/17 07:25:14;;;;;;;1.30;0.90;;;;;;;;;;5117544;27;20046;-50
2023/05/17 07:27:40;;;;;;;1.60;1.00;;;21.60;99.90;;;;;;5064189;28;20035;-51
2023/05/17 07:30:06;;;;;;;1.73;0.93;;;;;;;;;;5114336;27;20081;-51
2023/05/17 07:32:32;;;;;;;2.20;0.95;;;22.00;99.90;;;;;;5064624;27;20489;-51
2023/05/17 07:34:58;;;;;;;2.65;1.15;;;;;;;;;;5114188;27;20023;-51
2023/05/17 07:37:24;;;;;;;4.13;0.95;;;22.10;99.90;;;;;;5060008;27;20539;-53
2023/05/17 07:39:50;;;;;;;1.38;0.95;;;;;;;;;;5076447;28;20058;-50
2023/05/17 07:42:16;;;;;;;6.70;0.93;;;;;;;;;;5048011;27;20036;-50
2023/05/17 07:44:42;;;;;;;3.30;1.88;;;;;;;;;;5115561;27;20028;-51
2023/05/17 07:47:08;;;;;;;2.42;1.00;;;;;;;;;;5112822;27;20030;-51
2023/05/17 07:49:34;;;;;;;1.80;0.75;;;;;;;;;;5113753;27;20031;-50
2023/05/17 07:52:01;;;;;;;3.85;1.27;;;;;;;;;;5117427;27;20028;-52
2023/05/17 07:54:27;;;;;;;2.65;0.80;;;;;;;;;;5117249;27;20042;-50
2023/05/17 07:56:56;;;;;;;1.13;0.65;;;;;;;;;;5113953;27;20050;-52
2023/05/17 07:59:23;;;;;;;3.13;0.80;;;;;;;;;;5112451;27;20119;-50
2023/05/17 08:01:49;;;;;;;2.60;1.10;;;;;;;;;;5116582;27;20077;-51
2023/05/17 08:04:16;;;;;;;1.95;0.80;;;;;;;;;;5112067;28;20102;-52
2023/05/17 08:06:45;;;;;;;1.65;0.63;;;23.40;99.90;;;;;;5115980;28;20379;-52
2023/05/17 08:09:11;;;;;;;1.60;0.88;;;23.40;99.90;;;;;;5112351;28;20040;-50
2023/05/17 08:11:44;;;;;;;1.42;0.88;;;23.30;99.90;;;;;;5106214;28;20077;-51
2023/05/17 08:14:13;;;;;;;2.33;1.10;;;23.10;99.90;;;;;;5097154;28;20032;-52
2023/05/17 08:16:41;;;;;;;1.50;0.77;;;23.20;99.90;;;;;;5068328;28;20051;-51
2023/05/17 08:19:11;;;;;;;3.95;1.48;;;22.90;99.90;;;;;;5094423;28;20036;-51
2023/05/17 08:21:38;;;;;;;1.30;0.60;;;23.20;99.90;;;;;;5095807;28;20036;-52
2023/05/17 08:24:04;;;;;;;2.38;0.73;;;;;;;;;;5092887;28;20495;-51
2023/05/17 08:26:30;;;;;;;2.15;0.75;;;;;;;;;;5046033;28;20044;-51
2023/05/17 08:28:56;;;;;;;1.55;0.80;;;;;;;;;;5098047;28;20036;-51
2023/05/17 08:31:22;;;;;;;1.95;0.70;;;;;;;;;;5103382;28;20064;-51
2023/05/17 08:33:48;;;;;;;3.30;1.05;;;;;;;;;;5096395;28;20027;-51
2023/05/17 08:36:14;;;;;;;2.00;0.70;;;24.20;99.90;;;;;;5036493;28;20039;-51
2023/05/17 08:38:41;;;;;;;3.28;0.70;;;24.20;99.90;;;;;;5096846;28;20050;-51
2023/05/17 08:41:08;;;;;;;2.28;1.08;;;24.30;99.90;;;;;;5094932;28;20032;-51
2023/05/17 08:43:34;;;;;;;2.75;1.10;;;23.80;99.90;;;;;;5094433;28;20031;-51
2023/05/17 08:46:02;;;;;;;1.38;0.90;;;24.00;99.90;;;;;;5099435;28;20048;-50
2023/05/17 08:48:32;;;;;;;4.43;1.15;;;24.10;99.90;;;;;;5096524;28;20032;-50
2023/05/17 08:51:00;;;;;;;7.38;0.70;;;;;;;;;;5095473;28;20074;-51
2023/05/17 08:53:26;;;;;;;3.53;1.08;;;;;;;;;;5097275;28;20130;-50
2023/05/17 08:55:55;;;;;;;2.58;0.82;;;;;;;;;;5093445;28;20070;-51
2023/05/17 08:58:25;;;;;;;3.03;0.82;;;;;;;;;;5098292;28;20024;-51
2023/05/17 09:00:51;;;;;;;2.38;0.80;;;;;;;;;;5095391;28;20540;-50
2023/05/17 09:03:18;;;;;;;3.63;0.75;;;;;;;;;;5099812;28;20024;-51
2023/05/17 09:05:44;;;;;;;0.70;0.70;;;24.40;99.90;;;;;;5095180;28;20032;-51
2023/05/17 09:08:13;;;;;;;0.98;0.80;;;24.60;99.90;;;;;;5100567;28;20043;-51
2023/05/17 09:10:41;;;;;;;0.98;0.60;;;24.30;99.90;;;;;;5096265;28;20020;-50
2023/05/17 09:13:11;;;;;;;1.48;0.73;;;24.50;99.90;;;;;;5102019;28;20039;-52
2023/05/17 09:15:37;;;;;;;1.33;0.70;;;24.20;99.90;;;;;;5096973;28;20075;-52
2023/05/17 09:18:03;;;;;;;1.67;0.70;;;24.20;99.90;;;;;;5098577;28;20032;-51
2023/05/17 09:20:33;;;;;;;3.47;0.73;;;;;;;;;;5070296;28;20042;-51
2023/05/17 09:23:06;;;;;;;1.48;0.75;;;;;;;;;;5098353;28;20470;-51
2023/05/17 09:25:32;;;;;;;2.22;0.73;;;25.50;99.90;;;;;;5099921;28;20040;-51
2023/05/17 09:28:03;;;;;;;3.00;0.60;;;25.60;99.90;;;;;;5097184;28;20028;-51
2023/05/17 09:30:31;;;;;;;1.17;0.60;;;25.50;99.90;;;;;;5097892;28;20539;-51
2023/05/17 09:32:57;;;;;;;2.40;0.73;;;25.30;99.90;;;;;;5103336;28;20036;-52
2023/05/17 09:35:32;;;;;;;1.50;1.05;;;25.70;99.90;;;;;;5098650;28;20024;-50
2023/05/17 09:38:07;;;;;;;1.55;0.80;;;25.70;99.90;;;;;;5097246;28;20032;-51
2023/05/17 09:40:43;;;;;;;3.03;0.82;;;25.90;99.90;;;;;;5096663;28;20035;-51
2023/05/17 09:43:10;;;;;;;0.75;0.68;;;26.30;99.90;;;;;;5097077;28;20028;-50
2023/05/17 09:45:37;;;;;;;4.28;0.98;;;;;;;;;;5095381;28;20051;-50
2023/05/17 09:48:17;;;;;;;1.08;0.60;;;26.80;99.90;;;;;;5098328;28;20067;-51
2023/05/17 09:50:50;;;;;;;1.13;0.60;;;27.10;99.90;;;;;;5108353;28;20023;-50
2023/05/17 09:53:37;;;;;;;2.33;0.60;;;27.00;99.90;;;;;;5096340;28;20075;-53
2023/05/17 09:56:05;;;;;;;1.67;0.82;;;26.10;99.90;;;;;;5098312;28;20035;-54
2023/05/17 09:58:32;;;;;;;2.88;0.65;;;25.60;99.90;;;;;;5099416;28;20479;-50
2023/05/17 10:01:00;;;;;;;1.98;0.60;;;25.40;99.90;;;;;;5095633;28;20059;-52
2023/05/17 10:03:31;;;;;;;1.55;0.52;;;25.50;99.90;;;;;;5097081;28;20024;-50
2023/05/17 10:05:59;;;;;;;0.82;0.47;;;25.90;99.90;;;;;;5041028;28;20415;-49
2023/05/17 10:08:28;;;;;;;2.20;0.75;;;25.90;99.90;;;;;;5039440;28;20071;-50
2023/05/17 10:11:06;;;;;;;1.20;1.00;;;26.50;99.90;;;;;;5039212;28;20037;-50
2023/05/17 10:14:08;;;;;;;3.92;0.63;;;26.70;99.90;;;;;;4998605;28;20045;-50
2023/05/17 10:16:34;;;;;;;3.53;1.00;;;27.00;99.90;;;;;;5040894;28;20092;-50
2023/05/17 10:19:02;;;;;;;4.18;0.75;;;27.00;99.90;;;;;;5038984;28;20093;-50
2023/05/17 10:21:30;;;;;;;3.60;0.70;;;26.80;99.90;;;;;;5043740;28;20041;-50
2023/05/17 10:24:00;;;;;;;1.55;0.45;;;26.90;99.90;;;;;;5044825;28;20033;-53
2023/05/17 10:26:27;;;;;;;2.53;0.60;;;27.40;99.90;;;;;;5040556;28;20108;-50
2023/05/17 10:28:59;;;;;;;1.13;0.65;;;27.40;99.90;;;;;;5038298;28;20025;-50
2023/05/17 10:31:31;;;;;;;0.68;0.55;;;27.30;99.90;;;;;;5039036;28;20047;-50
2023/05/17 10:33:59;;;;;;;1.48;0.60;;;;;;;;;;5038158;28;20381;-50
2023/05/17 10:36:25;;;;;;;1.15;0.50;;;28.10;99.90;;;;;;5060604;28;20043;-50
2023/05/17 10:38:51;;;;;;;1.25;0.60;;;;;;;;;;5065553;28;20536;-49
2023/05/17 10:41:20;;;;;;;0.70;0.70;;;;;;;;;;5060575;28;20036;-50
2023/05/17 10:43:46;;;;;;;2.03;0.55;;;;;;;;;;5099853;28;20035;-50
2023/05/17 10:46:16;;;;;;;1.40;0.47;;;;;;;;;;5070829;28;20044;-50
2023/05/17 10:48:43;;;;;;;2.38;1.13;;;27.50;99.90;;;;;;5101224;28;20093;-49
2023/05/17 10:51:10;;;;;;;0.70;0.70;;;27.10;99.90;;;;;;5092972;28;20543;-50
2023/05/17 10:54:08;;;;;;;0.68;0.40;;;27.30;99.90;;;;;;5098300;28;20020;-51
2023/05/17 10:56:37;;;;;;;1.35;0.40;;;27.50;99.90;;;;;;5026802;28;20037;-50
2023/05/17 10:59:23;;;;;;;1.25;0.50;;;27.70;99.90;;;;;;5028609;28;20769;-53
2023/05/17 11:02:04;;;;;;;0.73;0.43;;;27.90;99.90;;;;;;5039487;28;20052;-50
2023/05/17 11:04:43;;;;;;;1.83;0.70;;;27.80;99.90;;;;;;5032847;28;20029;-50
2023/05/17 11:07:20;;;;;;;2.08;0.65;;;27.70;99.90;;;;;;5027774;28;20449;-50
2023/05/17 11:09:54;;;;;;;1.77;0.70;;;28.20;99.90;;;;;;5030130;28;20049;-50
2023/05/17 11:12:32;;;;;;;;;;;28.40;99.90;;;;;;5030332;28;20083;-50
2023/05/17 11:14:58;;;;;;;1.60;0.77;;;28.20;99.90;;;;;;5025857;28;20437;-50
2023/05/17 11:17:32;;;;;;;3.05;0.50;;;28.10;99.90;;;;;;5029542;28;20041;-50
2023/05/17 11:20:05;;;;;;;1.92;0.68;;;28.30;99.90;;;;;;5034081;28;20045;-51
2023/05/17 11:22:36;;;;;;;1.55;0.65;;;28.10;99.90;;;;;;5028695;28;20045;-50
2023/05/17 11:25:07;;;;;;;0.80;0.80;;;28.30;99.90;;;;;;5027503;28;20038;-50
2023/05/17 11:27:44;;;;;;;1.50;0.70;;;;;;;;;;5036917;28;20847;-50
2023/05/17 11:30:17;;;;;;;1.77;0.80;;;29.20;99.90;;;;;;5018434;28;20446;-50
2023/05/17 11:32:47;;;;;;;2.80;0.80;;;28.80;99.00;;;;;;5047351;28;20044;-49
2023/05/17 11:35:14;;;;;;;0.63;0.53;;;28.50;99.40;;;;;;5055734;28;20044;-49
2023/05/17 11:37:43;;;;;;;4.60;2.42;;;28.20;99.30;;;;;;5075402;28;20620;-50
2023/05/17 11:40:11;;;;;;;1.05;0.95;;;28.20;99.90;;;;;;5073368;28;20059;-50
2023/05/17 11:42:38;;;;;;;6.10;3.47;;;28.70;99.80;;;;;;5072089;28;20055;-50
2023/05/17 11:45:04;;;;;;;3.38;2.08;;;;;;;;;;5092170;28;20056;-50
2023/05/17 11:47:31;;;;;;;4.28;1.30;;;;;;;;;;5038786;28;20136;-50
2023/05/17 11:50:00;;;;;;;2.63;1.00;;;;;;;;;;5061892;28;20032;-53
2023/05/17 11:52:30;;;;;;;3.22;0.80;;;;;;;;;;5077631;28;20112;-52
2023/05/17 11:55:00;;;;;;;1.52;0.70;;;;;;;;;;5074012;28;20033;-52
2023/05/17 11:57:37;;;;;;;4.70;0.90;;;;;;;;;;5030201;28;20085;-51
2023/05/17 12:00:06;;;;;;;1.17;0.70;;;;;;;;;;4990665;28;20125;-50
2023/05/17 12:02:32;;;;;;;1.70;0.60;;;28.50;98.00;;;;;;4947434;28;20034;-50
2023/05/17 12:04:58;;;;;;;2.55;0.77;;;28.90;99.70;;;;;;4957690;28;20049;-52
2023/05/17 12:07:25;;;;;;;0.85;0.57;;;28.00;98.50;;;;;;4990658;28;20042;-50
2023/05/17 12:09:51;;;;;;;1.65;0.55;;;27.80;97.80;;;;;;4990083;28;20042;-51
2023/05/17 12:12:20;;;;;;;1.02;0.47;;;28.40;98.90;;;;;;4992188;28;20408;-51
2023/05/17 12:14:47;;;;;;;3.00;0.77;;;28.70;99.30;;;;;;4996809;28;20093;-51
2023/05/17 12:17:22;;;;;;;1.10;0.60;;;28.70;99.90;;;;;;4990094;28;20097;-50
2023/05/17 12:19:51;;;;;;;1.65;0.80;;;29.20;99.60;;;;;;4958825;28;20418;-51
2023/05/17 12:22:17;;;;;;;0.73;0.63;;;29.50;98.80;;;;;;4985900;28;20073;-51
2023/05/17 12:24:43;;;;;;;1.58;0.68;;;29.30;97.80;;;;;;4988964;28;20058;-50
2023/05/17 12:27:09;;;;;;;1.30;0.57;;;29.30;98.90;;;;;;4992894;28;20026;-50
2023/05/17 12:29:35;;;;;;;0.90;0.65;;;29.40;98.30;;;;;;5030826;28;20124;-50
2023/05/17 12:32:01;;;;;;;0.93;0.55;;;28.40;98.40;;;;;;5065963;28;20107;-50
2023/05/17 12:34:30;;;;;;;2.38;0.70;;;28.20;98.60;;;;;;5065969;28;20024;-52
2023/05/17 12:36:57;;;;;;;1.20;0.70;;;28.10;98.80;;;;;;5052333;28;20048;-51
2023/05/17 12:39:23;;;;;;;0.65;0.55;;;28.10;98.40;;;;;;5056922;28;20040;-52
2023/05/17 12:41:50;;;;;;;2.05;0.85;;;28.10;98.00;;;;;;5071641;28;20028;-50
2023/05/17 12:44:19;;;;;;;2.08;0.85;;;28.40;99.00;;;;;;5078575;28;20035;-50
2023/05/17 12:46:52;;;;;;;2.30;0.68;;;28.80;98.50;;;;;;5074441;28;20141;-51
2023/05/17 12:49:21;;;;;;;6.13;0.60;;;28.50;98.00;;;;;;5055257;28;20052;-54
2023/05/17 12:51:52;;;;;;;1.35;0.73;;;28.10;96.90;;;;;;5063114;28;20053;-51
2023/05/17 12:54:27;;;;;;;1.08;0.60;;;28.20;98.60;;;;;;5047006;28;20036;-53
2023/05/17 12:56:54;;;;;;;2.53;0.90;;;;;;;;;;5067466;28;20081;-54
2023/05/17 12:59:20;;;;;;;0.73;0.73;;;29.20;98.40;;;;;;5077385;28;20357;-53
2023/05/17 13:01:49;;;;;;;1.05;0.80;;;29.40;98.50;;;;;;5073275;28;20036;-56
2023/05/17 13:04:17;;;;;;;0.65;0.47;;;28.80;96.60;;;;;;5034546;28;20044;-50
2023/05/17 13:06:47;;;;;;;2.40;0.60;;;28.40;97.00;;;;;;5049843;28;20037;-50
2023/05/17 13:09:14;;;;;;;0.60;0.60;;;28.20;98.80;;;;;;5047255;28;20041;-54
2023/05/17 13:11:41;;;;;;;2.13;0.90;;;27.70;97.70;;;;;;5049737;28;20032;-50
2023/05/17 13:14:08;;;;;;;0.98;0.70;;;28.10;99.20;;;;;;5052087;28;20123;-52
2023/05/17 13:16:37;;;;;;;1.67;0.75;;;28.50;98.80;;;;;;5037082;28;20048;-50
2023/05/17 13:19:15;;;;;;;1.85;0.57;;;28.90;98.00;;;;;;5054849;28;20036;-52
2023/05/17 13:21:41;;;;;;;1.30;0.40;;;29.40;98.90;;;;;;5014435;28;20049;-52